.
WxDataArchive / Data Records for 2010-07-07
2010-07-06 July 2010 2010-07-08

Data Records for Wednesday, 07 July 2010

Time	Temp	Chill	HIndex	Humid	Dewpt	 Wind 	HiWind	WindDir	Rain 	Barom 
-----	----	-----	------	-----	-----	------	------	-------	-----	----- 
00:00	76.1	76.1	77.9	67	64.3	0	0	---	0.00	30.058 
00:05	76.0	76.0	77.7	68	64.7	0	0	---	0.00	30.058 
00:10	75.8	75.8	77.6	68	64.5	0	0	---	0.00	30.058 
00:15	75.8	75.8	77.6	68	64.5	0	0	---	0.00	30.058 
00:20	75.6	75.6	77.4	68	64.3	0	0	---	0.00	30.058 
00:25	75.6	75.6	77.4	68	64.3	0	0	---	0.00	30.058 
00:30	75.6	75.6	77.3	69	64.7	0	0	---	0.00	30.058 
00:35	75.4	75.4	77.1	69	64.5	0	0	---	0.00	30.058 
00:40	75.4	75.4	77.1	69	64.5	0	0	---	0.00	30.058 
00:45	75.3	75.3	77.0	69	64.4	0	0	---	0.00	30.059 
00:50	75.1	75.1	76.9	69	64.2	0	0	---	0.00	30.059 
00:55	75.1	75.1	76.8	70	64.6	0	0	---	0.00	30.059 
01:00	74.9	74.9	74.9	70	64.4	0	0	---	0.00	30.056 
01:05	74.7	74.7	74.7	71	64.7	0	0	---	0.00	30.056 
01:10	74.6	74.6	74.6	71	64.6	0	0	---	0.00	30.056 
01:15	74.4	74.4	74.4	72	64.8	0	0	---	0.00	30.055 
01:20	74.2	74.2	74.2	72	64.6	0	0	---	0.00	30.055 
01:25	74.0	74.0	74.0	73	64.8	0	0	---	0.00	30.055 
01:30	73.9	73.9	73.9	73	64.7	0	0	---	0.00	30.056 
01:35	73.7	73.7	73.7	74	64.9	0	0	---	0.00	30.056 
01:40	73.5	73.5	73.5	75	65.1	0	0	---	0.00	30.056 
01:45	73.3	73.3	73.3	76	65.3	0	0	---	0.00	30.058 
01:50	73.2	73.2	73.2	76	65.2	0	0	---	0.00	30.058 
01:55	73.0	73.0	73.0	77	65.3	0	0	---	0.00	30.058 
02:00	72.8	72.8	72.8	77	65.2	0	0	---	0.00	30.053 
02:05	72.7	72.7	72.7	78	65.4	0	0	---	0.00	30.053 
02:10	72.5	72.5	72.5	78	65.2	0	0	---	0.00	30.053 
02:15	72.5	72.5	72.5	78	65.2	0	0	---	0.00	30.052 
02:20	72.3	72.3	72.3	79	65.4	0	0	---	0.00	30.052 
02:25	72.3	72.3	72.3	80	65.8	0	0	---	0.00	30.052 
02:30	72.1	72.1	72.1	80	65.6	0	0	---	0.00	30.053 
02:35	72.0	72.0	72.0	81	65.8	0	0	---	0.00	30.053 
02:40	72.0	72.0	72.0	81	65.8	0	0	---	0.00	30.053 
02:45	72.0	72.0	72.0	81	65.8	0	0	---	0.00	30.057 
02:50	71.8	71.8	71.8	81	65.6	0	0	---	0.00	30.057 
02:55	71.8	71.8	71.8	81	65.6	0	0	---	0.00	30.057 
03:00	71.6	71.6	71.6	82	65.8	0	0	---	0.00	30.058 
03:05	71.6	71.6	71.6	82	65.8	0	0	---	0.00	30.058 
03:10	71.5	71.5	71.5	82	65.7	0	0	---	0.00	30.058 
03:15	71.5	71.5	71.5	83	66.1	0	0	---	0.00	30.055 
03:20	71.5	71.5	71.5	83	66.1	0	0	---	0.00	30.055 
03:25	71.6	71.6	71.6	83	66.2	0	0	---	0.00	30.055 
03:30	71.6	71.6	71.6	83	66.2	0	0	---	0.00	30.057 
03:35	71.6	71.6	71.6	83	66.2	0	0	---	0.00	30.057 
03:40	71.5	71.5	71.5	83	66.1	0	0	---	0.00	30.057 
03:45	71.5	71.5	71.5	83	66.1	0	0	---	0.00	30.057 
03:50	71.3	71.3	71.3	83	65.9	0	0	---	0.00	30.057 
03:55	71.3	71.3	71.3	84	66.2	0	0	---	0.00	30.057 
04:00	71.1	71.1	71.1	84	66.0	0	0	---	0.00	30.060 
04:05	71.1	71.1	71.1	84	66.0	0	0	---	0.00	30.060 
04:10	70.9	70.9	70.9	84	65.8	0	0	---	0.00	30.060 
04:15	70.8	70.8	70.8	84	65.7	0	0	---	0.00	30.059 
04:20	70.8	70.8	70.8	84	65.7	0	0	---	0.00	30.059 
04:25	70.6	70.6	70.6	84	65.5	0	0	---	0.00	30.059 
04:30	70.6	70.6	70.6	86	66.2	0	0	---	0.00	30.056 
04:35	70.4	70.4	70.4	86	66.0	0	0	---	0.00	30.056 
04:40	70.4	70.4	70.4	86	66.0	0	0	---	0.00	30.056 
04:45	70.4	70.4	70.4	86	66.0	0	0	---	0.00	30.062 
04:50	70.3	70.3	70.3	86	65.9	0	0	---	0.00	30.062 
04:55	70.1	70.1	70.1	86	65.7	0	0	---	0.00	30.062 
05:00	70.1	70.1	70.1	86	65.7	0	0	---	0.00	30.063 
05:05	69.9	69.9	69.9	87	65.8	0	0	---	0.00	30.063 
05:10	69.9	69.9	69.9	87	65.8	0	0	---	0.00	30.063 
05:15	69.9	69.9	69.9	87	65.8	0	0	---	0.00	30.064 
05:20	69.9	69.9	69.9	87	65.8	0	0	---	0.00	30.064 
05:25	69.8	69.8	69.8	88	66.1	0	0	---	0.00	30.064 
05:30	69.8	69.8	69.8	88	66.1	0	0	---	0.00	30.064 
05:35	69.6	69.6	69.6	88	65.9	0	0	---	0.00	30.064 
05:40	69.4	69.4	69.4	88	65.7	0	0	---	0.00	30.064 
05:45	69.4	69.4	69.4	88	65.7	0	0	---	0.00	30.064 
05:50	69.3	69.3	69.3	88	65.6	0	0	---	0.00	30.064 
05:55	69.3	69.3	69.3	88	65.6	0	0	---	0.00	30.064 
06:00	69.3	69.3	69.3	88	65.6	0	0	---	0.00	30.066 
06:05	69.1	69.1	69.1	89	65.7	0	0	---	0.00	30.066 
06:10	68.9	68.9	68.9	89	65.5	0	0	---	0.00	30.066 
06:15	68.9	68.9	68.9	89	65.5	0	0	---	0.00	30.080 
06:20	68.9	68.9	68.9	89	65.5	0	0	---	0.00	30.080 
06:25	68.9	68.9	68.9	90	65.8	0	0	---	0.00	30.080 
06:30	68.8	68.8	68.8	90	65.7	0	0	---	0.00	30.081 
06:35	68.8	68.8	68.8	90	65.7	0	0	---	0.00	30.081 
06:40	68.8	68.8	68.8	90	65.7	0	0	---	0.00	30.081 
06:45	68.8	68.8	68.8	90	65.7	0	0	---	0.00	30.084 
06:50	68.8	68.8	68.8	90	65.7	0	0	---	0.00	30.084 
06:55	68.8	68.8	68.8	90	65.7	0	0	---	0.00	30.084 
07:00	68.8	68.8	68.8	91	66.1	0	0	---	0.00	30.092 
07:05	68.9	68.9	68.9	91	66.2	0	0	---	0.00	30.092 
07:10	69.1	69.1	69.1	91	66.4	0	0	---	0.00	30.092 
07:15	69.3	69.3	69.3	91	66.6	0	0	---	0.00	30.098 
07:20	69.4	69.4	69.4	91	66.7	0	1	90	0.00	30.098 
07:25	69.8	69.8	69.8	91	67.0	0	0	---	0.00	30.098 
07:30	70.4	70.4	70.4	91	67.6	0	0	---	0.00	30.099 
07:35	71.1	71.1	71.1	89	67.7	0	0	---	0.00	30.099 
07:40	71.6	71.6	71.6	89	68.2	0	0	---	0.00	30.099 
07:45	72.3	72.3	72.3	87	68.2	0	0	---	0.00	30.106 
07:50	73.0	73.0	73.0	85	68.2	0	1	90	0.00	30.106 
07:55	73.7	73.7	73.7	84	68.6	0	0	---	0.00	30.106 
08:00	74.4	74.4	74.4	81	68.2	0	1	90	0.00	30.102 
08:05	74.9	74.9	74.9	79	67.9	0	1	90	0.00	30.102 
08:10	75.8	75.8	76.9	78	68.4	0	1	90	0.00	30.102 
08:15	76.3	76.3	77.7	76	68.2	0	1	90	0.00	30.108 
08:20	76.8	76.8	78.4	75	68.3	0	0	---	0.00	30.108 
08:25	77.4	77.4	79.3	75	68.8	0	1	90	0.00	30.108 
08:30	77.9	77.9	80.0	73	68.5	0	1	90	0.00	30.108 
08:35	78.6	78.6	81.0	72	68.8	0	1	90	0.00	30.108 
08:40	79.2	79.2	81.6	69	68.1	0	1	90	0.00	30.108 
08:45	79.4	79.4	81.9	69	68.3	0	1	90	0.00	30.108 
08:50	79.4	79.4	81.8	68	67.9	0	1	90	0.00	30.108 
08:55	79.6	79.6	82.2	69	68.5	0	1	90	0.00	30.108 
09:00	79.8	79.8	82.5	69	68.7	0	1	90	0.00	30.108 
09:05	79.8	79.8	82.5	69	68.7	0	0	---	0.00	30.108 
09:10	80.1	80.1	82.9	68	68.6	0	1	90	0.00	30.108 
09:15	80.7	80.7	83.4	65	67.8	0	2	90	0.00	30.109 
09:20	81.4	81.4	84.3	64	68.0	0	1	90	0.00	30.109 
09:25	82.0	82.0	84.8	62	67.7	0	2	90	0.00	30.109 
09:30	82.4	82.4	85.0	60	67.1	0	2	90	0.00	30.109 
09:35	82.8	82.8	85.2	58	66.5	1	3	90	0.00	30.109 
09:40	83.0	83.0	85.3	57	66.2	1	2	112	0.00	30.109 
09:45	83.8	83.8	86.7	58	67.4	0	1	112	0.00	30.107 
09:50	84.1	84.1	86.4	55	66.2	0	2	112	0.00	30.107 
09:55	84.3	84.3	86.7	55	66.3	1	2	112	0.00	30.107 
10:00	84.5	84.5	87.3	56	67.0	1	2	112	0.00	30.107 
10:05	85.1	85.1	87.7	54	66.6	0	1	112	0.00	30.107 
10:10	85.5	85.5	88.3	54	66.9	0	3	112	0.00	30.107 
10:15	85.9	85.9	88.6	53	66.7	1	3	112	0.00	30.105 
10:20	85.9	85.9	88.6	53	66.7	0	2	112	0.00	30.105 
10:25	86.3	86.3	89.6	54	67.7	1	2	112	0.00	30.105 
10:30	86.5	86.5	90.3	55	68.4	0	2	112	0.00	30.101 
10:35	86.7	86.7	89.6	52	66.9	1	2	315	0.00	30.101 
10:40	87.0	87.0	90.1	52	67.2	0	1	315	0.00	30.101 
10:45	87.8	87.8	90.7	50	66.8	1	3	315	0.00	30.101 
10:50	88.6	88.6	92.1	50	67.5	0	2	22	0.00	30.101 
10:55	88.6	88.6	92.1	50	67.5	0	1	22	0.00	30.101 
11:00	88.4	88.4	91.7	50	67.4	0	2	22	0.00	30.098 
11:05	88.2	88.2	91.0	49	66.6	0	1	22	0.00	30.098 
11:10	88.4	88.4	91.7	50	67.4	1	3	22	0.00	30.098 
11:15	88.4	88.4	91.3	49	66.8	1	3	292	0.00	30.099 
11:20	88.6	88.6	91.3	48	66.4	1	3	292	0.00	30.099 
11:25	89.0	89.0	92.4	49	67.3	0	2	338	0.00	30.099 
11:30	89.3	89.3	92.9	49	67.6	1	3	338	0.00	30.097 
11:35	89.0	89.0	91.6	47	66.1	0	2	338	0.00	30.097 
11:40	89.5	89.5	92.4	47	66.6	0	2	338	0.00	30.097 
11:45	89.9	89.9	92.7	46	66.3	1	3	338	0.00	30.096 
11:50	90.3	90.3	93.8	47	67.3	0	1	292	0.00	30.096 
11:55	90.7	90.7	94.1	46	67.0	0	2	292	0.00	30.096 
12:00	91.2	91.2	93.7	43	65.5	1	3	292	0.00	30.092 
12:05	91.0	91.0	93.8	44	66.0	1	3	112	0.00	30.092 
12:10	91.0	91.0	93.8	44	66.0	1	2	292	0.00	30.092 
12:15	91.4	91.4	94.0	43	65.7	0	2	292	0.00	30.090 
12:20	91.2	91.2	94.1	44	66.2	1	3	292	0.00	30.090 
12:25	91.0	91.0	93.4	43	65.4	0	2	292	0.00	30.090 
12:30	91.4	91.4	94.9	45	67.0	1	3	45	0.00	30.091 
12:35	91.6	91.6	94.8	44	66.6	1	3	45	0.00	30.091 
12:40	91.4	91.4	94.0	43	65.7	1	3	292	0.00	30.091 
12:45	90.5	90.5	92.9	44	65.6	1	2	292	0.00	30.091 
12:50	89.5	89.5	91.7	45	65.3	1	2	292	0.00	30.091 
12:55	89.0	89.0	91.2	46	65.5	0	1	292	0.00	30.091 
13:00	89.0	89.0	91.2	46	65.5	0	2	292	0.00	30.091 
13:05	89.9	89.9	92.7	46	66.3	1	2	292	0.00	30.091 
13:10	90.3	90.3	91.8	42	64.0	0	2	292	0.00	30.091 
13:15	90.7	90.7	92.9	43	65.1	0	1	292	0.00	30.087 
13:20	90.5	90.5	92.9	44	65.6	0	2	292	0.00	30.087 
13:25	89.9	89.9	91.6	43	64.4	0	1	292	0.00	30.087 
13:30	89.5	89.5	91.7	45	65.3	0	2	292	0.00	30.088 
13:35	89.3	89.3	92.1	47	66.4	0	1	292	0.00	30.088 
13:40	89.3	89.3	92.9	49	67.6	0	0	---	0.00	30.088 
13:45	89.7	89.7	92.0	45	65.5	0	1	292	0.00	30.080 
13:50	90.1	90.1	93.5	47	67.1	1	3	292	0.00	30.080 
13:55	90.1	90.1	92.3	44	65.2	0	2	292	0.00	30.080 
14:00	90.1	90.1	93.1	46	66.5	0	1	292	0.00	30.080 
14:05	90.3	90.3	92.6	44	65.4	1	2	270	0.00	30.080 
14:10	91.0	91.0	92.6	41	64.0	1	3	68	0.00	30.080 
14:15	91.6	91.6	93.1	40	63.8	1	3	270	0.00	30.078 
14:20	92.1	92.1	93.5	39	63.5	0	2	270	0.00	30.078 
14:25	91.2	91.2	92.9	41	64.2	1	3	270	0.00	30.078 
14:30	90.3	90.3	91.8	42	64.0	0	3	292	0.00	30.080 
14:35	90.1	90.1	91.9	43	64.5	0	2	292	0.00	30.080 
14:40	90.1	90.1	92.3	44	65.2	1	3	292	0.00	30.080 
14:45	90.7	90.7	92.5	42	64.4	0	2	292	0.00	30.079 
14:50	91.2	91.2	93.7	43	65.5	0	1	292	0.00	30.079 
14:55	91.6	91.6	93.1	40	63.8	1	3	292	0.00	30.079 
15:00	91.6	91.6	92.7	39	63.1	1	3	292	0.00	30.072 
15:05	91.6	91.6	93.1	40	63.8	1	3	338	0.00	30.072 
15:10	91.4	91.4	93.2	41	64.3	0	1	338	0.00	30.072 
15:15	91.0	91.0	92.6	41	64.0	0	3	112	0.00	30.065 
15:20	91.6	91.6	93.1	40	63.8	0	2	112	0.00	30.065 
15:25	92.5	92.5	94.2	39	63.9	1	5	270	0.00	30.065 
15:30	92.5	92.5	94.2	39	63.9	1	3	270	0.00	30.062 
15:35	92.5	92.5	94.2	39	63.9	0	2	270	0.00	30.062 
15:40	92.1	92.1	94.4	41	65.0	1	4	270	0.00	30.062 
15:45	91.8	91.8	93.1	39	63.3	0	1	270	0.00	30.062 
15:50	92.1	92.1	93.1	38	62.8	1	3	270	0.00	30.062 
15:55	92.1	92.1	93.9	40	64.3	0	1	270	0.00	30.062 
16:00	91.8	91.8	94.3	42	65.4	1	3	270	0.00	30.056 
16:05	92.3	92.3	93.8	39	63.7	1	2	112	0.00	30.056 
16:10	92.9	92.9	95.7	41	65.7	0	1	112	0.00	30.056 
16:15	93.2	93.2	94.9	38	63.8	0	2	112	0.00	30.048 
16:20	93.4	93.4	94.8	37	63.2	0	2	112	0.00	30.048 
16:25	92.9	92.9	94.4	38	63.5	0	2	112	0.00	30.048 
16:30	92.7	92.7	93.7	37	62.6	0	2	112	0.00	30.045 
16:35	92.3	92.3	93.8	39	63.7	0	1	112	0.00	30.045 
16:40	91.8	91.8	93.1	39	63.3	0	0	---	0.00	30.045 
16:45	91.2	91.2	93.3	42	64.9	0	0	---	0.00	30.041 
16:50	90.5	90.5	91.4	40	62.8	0	0	---	0.00	30.041 
16:55	90.7	90.7	92.5	42	64.4	0	2	112	0.00	30.041 
17:00	91.6	91.6	92.0	37	61.6	0	3	270	0.00	30.037 
17:05	92.5	92.5	93.4	37	62.4	0	2	270	0.00	30.037 
17:10	93.4	93.4	94.4	36	62.4	0	1	270	0.00	30.037 
17:15	93.2	93.2	93.7	35	61.4	0	1	270	0.00	30.032 
17:20	92.9	92.9	94.0	37	62.7	0	0	---	0.00	30.032 
17:25	92.9	92.9	94.0	37	62.7	1	2	270	0.00	30.032 
17:30	93.2	93.2	94.5	37	63.0	0	1	270	0.00	30.030 
17:35	93.4	93.4	94.0	35	61.6	0	1	270	0.00	30.030 
17:40	93.6	93.6	94.3	35	61.8	1	3	270	0.00	30.030 
17:45	93.4	93.4	93.2	33	59.9	0	2	68	0.00	30.024 
17:50	93.4	93.4	93.6	34	60.8	0	1	68	0.00	30.024 
17:55	93.4	93.4	93.2	33	59.9	1	2	68	0.00	30.024 
18:00	93.4	93.4	93.2	33	59.9	1	3	68	0.00	30.019 
18:05	92.9	92.9	93.6	36	62.0	1	3	68	0.00	30.019 
18:10	92.7	92.7	92.5	34	60.2	0	2	68	0.00	30.019 
18:15	92.7	92.7	93.3	36	61.8	0	1	90	0.00	30.019 
18:20	92.5	92.5	91.9	33	59.2	0	0	---	0.00	30.019 
18:25	92.5	92.5	92.6	35	60.8	0	1	90	0.00	30.019 
18:30	92.3	92.3	91.6	33	59.0	1	4	112	0.00	30.018 
18:35	92.1	92.1	91.4	33	58.8	1	2	112	0.00	30.018 
18:40	92.1	92.1	92.0	35	60.5	0	1	112	0.00	30.018 
18:45	91.8	91.8	91.6	35	60.2	0	1	112	0.00	30.018 
18:50	91.4	91.4	90.7	34	59.0	0	2	112	0.00	30.018 
18:55	90.7	90.7	90.1	35	59.2	0	1	112	0.00	30.018 
19:00	90.5	90.5	90.4	37	60.6	0	1	112	0.00	30.018 
19:05	90.5	90.5	90.7	38	61.4	0	2	112	0.00	30.018 
19:10	90.3	90.3	90.1	37	60.4	0	2	135	0.00	30.018 
19:15	90.3	90.3	90.8	39	61.9	0	0	---	0.00	30.014 
19:20	90.3	90.3	90.5	38	61.2	0	1	135	0.00	30.014 
19:25	90.3	90.3	90.5	38	61.2	0	1	135	0.00	30.014 
19:30	90.3	90.3	90.8	39	61.9	0	2	135	0.00	30.015 
19:35	90.1	90.1	90.8	40	62.5	0	2	202	0.00	30.015 
19:40	89.9	89.9	90.9	41	63.0	0	1	202	0.00	30.015 
19:45	89.7	89.7	90.6	41	62.8	0	1	202	0.00	30.015 
19:50	89.5	89.5	90.6	42	63.3	0	0	---	0.00	30.015 
19:55	89.3	89.3	90.6	43	63.8	0	1	202	0.00	30.015 
20:00	89.0	89.0	89.9	42	62.9	0	0	---	0.00	30.017 
20:05	88.8	88.8	89.6	42	62.7	0	0	---	0.00	30.017 
20:10	88.8	88.8	90.2	44	64.0	0	0	---	0.00	30.017 
20:15	88.6	88.6	89.9	44	63.9	0	0	---	0.00	30.013 
20:20	88.4	88.4	89.6	44	63.7	0	0	---	0.00	30.013 
20:25	88.2	88.2	89.7	45	64.1	0	0	---	0.00	30.013 
20:30	88.0	88.0	89.4	45	64.0	0	0	---	0.00	30.013 
20:35	87.6	87.6	89.1	46	64.2	0	0	---	0.00	30.013 
20:40	87.4	87.4	88.5	45	63.4	0	0	---	0.00	30.013 
20:45	87.0	87.0	87.9	45	63.1	0	0	---	0.00	30.015 
20:50	86.7	86.7	87.8	46	63.4	0	0	---	0.00	30.015 
20:55	86.3	86.3	87.2	46	63.0	0	0	---	0.00	30.015 
21:00	85.9	85.9	86.7	46	62.7	0	0	---	0.00	30.015 
21:05	85.5	85.5	86.4	47	62.9	0	0	---	0.00	30.015 
21:10	85.1	85.1	86.4	49	63.8	0	0	---	0.00	30.015 
21:15	84.7	84.7	86.0	50	64.0	0	0	---	0.00	30.011 
21:20	84.3	84.3	85.7	51	64.2	0	0	---	0.00	30.011 
21:25	84.0	84.0	85.3	51	63.9	0	0	---	0.00	30.011 
21:30	83.4	83.4	84.8	52	63.9	0	0	---	0.00	30.015 
21:35	83.0	83.0	84.5	53	64.1	0	0	---	0.00	30.015 
21:40	82.6	82.6	84.1	54	64.2	0	0	---	0.00	30.015 
21:45	82.2	82.2	83.8	55	64.4	0	0	---	0.00	30.018 
21:50	81.8	81.8	83.5	56	64.5	0	0	---	0.00	30.018 
21:55	81.2	81.2	82.9	57	64.5	0	0	---	0.00	30.018 
22:00	81.1	81.1	82.9	58	64.9	0	0	---	0.00	30.023 
22:05	80.7	80.7	82.5	59	65.0	0	0	---	0.00	30.023 
22:10	80.3	80.3	82.1	59	64.6	0	0	---	0.00	30.023 
22:15	80.1	80.1	82.0	61	65.4	0	0	---	0.00	30.026 
22:20	79.8	79.8	81.8	62	65.6	0	0	---	0.00	30.026 
22:25	79.6	79.6	81.5	62	65.4	0	0	---	0.00	30.026 
22:30	79.4	79.4	81.4	63	65.7	0	0	---	0.00	30.030 
22:35	79.2	79.2	81.1	63	65.5	0	0	---	0.00	30.030 
22:40	79.0	79.0	80.9	63	65.3	0	0	---	0.00	30.030 
22:45	78.8	78.8	80.7	63	65.1	0	0	---	0.00	30.031 
22:50	78.6	78.6	80.5	64	65.4	0	0	---	0.00	30.031 
22:55	78.5	78.5	80.4	64	65.3	0	0	---	0.00	30.031 
23:00	78.3	78.3	80.2	65	65.5	0	0	---	0.00	30.031 
23:05	78.1	78.1	80.0	66	65.8	0	0	---	0.00	30.031 
23:10	78.1	78.1	80.0	66	65.8	0	0	---	0.00	30.031 
23:15	77.9	77.9	79.8	67	66.0	0	0	---	0.00	30.028 
23:20	77.7	77.7	79.6	67	65.8	0	0	---	0.00	30.028 
23:25	77.6	77.6	79.5	67	65.8	0	0	---	0.00	30.028 
23:30	77.4	77.4	79.2	67	65.6	0	0	---	0.00	30.026 
23:35	77.2	77.2	79.0	68	65.8	0	0	---	0.00	30.026 
23:40	77.0	77.0	78.8	69	66.0	0	0	---	0.00	30.026 
23:45	77.0	77.0	78.8	69	66.0	0	0	---	0.00	30.027 
23:50	76.8	76.8	78.5	70	66.3	0	0	---	0.00	30.027 
23:55	76.8	76.8	78.5	71	66.7	0	0	---	0.00	30.027 

CoCoRaHS
IN-AL-39
A2 Web Hosting
Creative Commons License
GoDaddy
search engine by freefind advanced

loaded 2018-11-12 15:07:10 • last modified 2010-11-18 10:43:29
Privacy PolicyDisclaimer
• wx.awcolley.com is powered by PmWiki v.2002016 •
• all content (unless otherwise noted) © 2018 A W Colley